Dubard, Mississippi
Current Conditions -  °F | °C
As of 10:15 PM on Friday 31 Oct 2014 (Local Time) from KGNF Reporting Station
Clear Clear  
Wind Chill: 37°   Ceiling: Unl
Heat Index: 41°   Visibility: 10mi
Dew Point: 25°   Wind: 6mph
Humidity: 53%   Direction: 360°N
Pressure: 30.32"   Gusts: NA
Location:  33.8096°N, 89.8042°W
Report Text: KGNF 010315Z AUTO 36005KT 10SM CLR 05/M04 A3032 RMK AO2
Loading
Personal Weather Stations






























Interactive Weather Map
Tropical Storm Tracking
New forecast layout! Learn more

10-Day Weather Forecast

Advertisements
Track Severe Weather on mobile